createdAt,value
2023-02-26T00:00:06.239Z,1.04
2023-02-26T00:01:06.388Z,1.04
2023-02-26T00:02:06.539Z,1.04
2023-02-26T00:03:06.681Z,1.04
2023-02-26T00:04:06.813Z,1.04
2023-02-26T00:05:06.971Z,1.04
2023-02-26T00:06:07.109Z,1.04
2023-02-26T00:07:07.263Z,1.04
2023-02-26T00:08:07.400Z,1.04
2023-02-26T00:09:07.579Z,1.04
2023-02-26T00:10:07.645Z,1.04
2023-02-26T00:11:07.772Z,1.04
2023-02-26T00:12:07.899Z,1.04
2023-02-26T00:13:08.048Z,1.04
2023-02-26T00:14:08.199Z,1.04
2023-02-26T00:15:08.366Z,1.04
2023-02-26T00:16:08.499Z,1.04
2023-02-26T00:17:09.002Z,1.04
2023-02-26T00:18:08.802Z,1.04
2023-02-26T00:19:08.953Z,1.04
2023-02-26T00:20:09.108Z,1.04
2023-02-26T00:21:09.261Z,1.04
2023-02-26T00:22:09.372Z,1.04
2023-02-26T00:23:09.487Z,1.04
2023-02-26T00:24:09.633Z,1.04
2023-02-26T00:25:09.773Z,1.04
2023-02-26T00:26:09.915Z,1.04
2023-02-26T00:27:10.069Z,1.04
2023-02-26T00:28:10.238Z,1.04
2023-02-26T00:29:10.390Z,1.04
2023-02-26T00:30:10.547Z,1.04
2023-02-26T00:31:10.827Z,1.04
2023-02-26T00:32:10.900Z,1.04
2023-02-26T00:33:10.949Z,1.04
2023-02-26T00:34:11.091Z,1.04
2023-02-26T00:35:11.230Z,1.04
2023-02-26T00:36:11.388Z,1.04
2023-02-26T00:37:11.546Z,1.04
2023-02-26T00:38:11.711Z,1.04
2023-02-26T00:39:11.861Z,1.04
2023-02-26T00:40:11.959Z,1.04
2023-02-26T00:41:12.186Z,1.04
2023-02-26T00:42:12.262Z,1.04
2023-02-26T00:43:12.420Z,1.04
2023-02-26T00:44:12.576Z,1.04
2023-02-26T00:45:12.715Z,1.04
2023-02-26T00:46:12.883Z,1.04
2023-02-26T00:47:13.012Z,1.04
2023-02-26T00:48:13.159Z,1.04
2023-02-26T00:49:13.314Z,1.04
2023-02-26T00:50:13.465Z,1.04
2023-02-26T00:51:13.574Z,1.04
2023-02-26T00:52:13.672Z,1.04
2023-02-26T00:53:13.774Z,1.04
2023-02-26T00:54:13.920Z,1.04
2023-02-26T00:55:14.073Z,1.04
2023-02-26T00:56:14.229Z,1.04
2023-02-26T00:57:14.396Z,1.04
2023-02-26T00:58:14.539Z,1.04
2023-02-26T00:59:14.700Z,1.04
2023-02-26T01:00:14.832Z,1.04
2023-02-26T01:01:14.979Z,1.04
2023-02-26T01:02:15.074Z,1.04
2023-02-26T01:03:15.232Z,1.04
2023-02-26T01:04:15.387Z,1.04
2023-02-26T01:05:15.434Z,1.04
2023-02-26T01:06:15.542Z,1.04
2023-02-26T01:07:15.648Z,1.04
2023-02-26T01:08:15.784Z,1.04
2023-02-26T01:09:15.935Z,1.04
2023-02-26T01:10:16.095Z,1.04
2023-02-26T01:11:16.243Z,1.04
2023-02-26T01:12:16.406Z,1.04
2023-02-26T01:13:16.559Z,1.04
2023-02-26T01:14:16.711Z,1.04
2023-02-26T01:15:16.847Z,1.04
2023-02-26T01:16:17.049Z,1.04
2023-02-26T01:17:17.173Z,1.04
2023-02-26T01:18:17.323Z,1.04
2023-02-26T01:19:17.446Z,1.04
2023-02-26T01:20:17.627Z,1.04
2023-02-26T01:21:17.708Z,1.04
2023-02-26T01:22:17.863Z,1.04
2023-02-26T01:23:18.037Z,1.04
2023-02-26T01:24:18.151Z,1.04
2023-02-26T01:25:18.307Z,1.04
2023-02-26T01:26:18.417Z,1.04
2023-02-26T01:27:18.570Z,1.04
2023-02-26T01:28:18.732Z,1.04
2023-02-26T01:29:18.870Z,1.04
2023-02-26T01:30:19.021Z,1.04
2023-02-26T01:31:19.869Z,1.04
2023-02-26T01:32:19.707Z,1.04
2023-02-26T01:33:19.750Z,1.04
2023-02-26T01:34:19.573Z,1.04
2023-02-26T01:35:19.671Z,1.04
2023-02-26T01:36:19.844Z,1.04
2023-02-26T01:37:19.994Z,1.04
2023-02-26T01:38:20.126Z,1.04
2023-02-26T01:39:20.282Z,1.04
2023-02-26T01:40:20.441Z,1.04
2023-02-26T01:41:20.539Z,1.04
2023-02-26T01:42:20.704Z,1.04
2023-02-26T01:43:20.847Z,1.04
2023-02-26T01:44:20.962Z,1.04
2023-02-26T01:45:21.043Z,1.04
2023-02-26T01:46:21.246Z,1.04
2023-02-26T01:47:21.324Z,1.04
2023-02-26T01:48:21.448Z,1.04
2023-02-26T01:49:21.637Z,1.04
2023-02-26T01:50:21.802Z,1.04
2023-02-26T01:51:21.952Z,1.04
2023-02-26T01:52:22.101Z,1.04
2023-02-26T01:53:22.236Z,1.04
2023-02-26T01:54:22.364Z,1.04
2023-02-26T01:55:22.511Z,1.04
2023-02-26T01:56:22.670Z,1.04
2023-02-26T01:57:22.811Z,1.04
2023-02-26T01:58:22.982Z,1.04
2023-02-26T01:59:23.120Z,1.04
2023-02-26T02:00:23.274Z,1.04
2023-02-26T02:01:23.362Z,1.04
2023-02-26T02:02:23.634Z,1.04
2023-02-26T02:03:23.795Z,1.04
2023-02-26T02:04:23.823Z,1.04
2023-02-26T02:05:23.994Z,1.04
2023-02-26T02:06:24.493Z,1.04
2023-02-26T02:07:24.276Z,1.04
2023-02-26T02:08:24.433Z,1.04
2023-02-26T02:09:24.589Z,1.04
2023-02-26T02:10:24.684Z,1.04
2023-02-26T02:11:24.805Z,1.04
2023-02-26T02:12:24.935Z,1.04
2023-02-26T02:13:25.084Z,1.04
2023-02-26T02:14:25.190Z,1.04
2023-02-26T02:15:25.333Z,1.04
2023-02-26T02:16:25.904Z,1.04
2023-02-26T02:17:25.643Z,1.04
2023-02-26T02:18:25.792Z,1.04
2023-02-26T02:19:25.941Z,1.04
2023-02-26T02:20:26.105Z,1.04
2023-02-26T02:21:26.258Z,1.04
2023-02-26T02:22:26.417Z,1.04
2023-02-26T02:23:26.548Z,1.04
2023-02-26T02:24:26.695Z,1.04
2023-02-26T02:25:26.850Z,1.04
2023-02-26T02:26:27.313Z,1.04
2023-02-26T02:27:27.090Z,1.04
2023-02-26T02:28:27.204Z,1.04
2023-02-26T02:29:27.299Z,1.04
2023-02-26T02:30:27.404Z,1.04
2023-02-26T02:31:27.592Z,1.04
2023-02-26T02:32:27.801Z,1.04
2023-02-26T02:33:27.870Z,1.04
2023-02-26T02:34:28.010Z,1.04
2023-02-26T02:35:28.104Z,1.04
2023-02-26T02:36:28.275Z,1.04
2023-02-26T02:37:28.403Z,1.04
2023-02-26T02:38:28.558Z,1.04
2023-02-26T02:39:28.718Z,1.04
2023-02-26T02:40:28.856Z,1.04
2023-02-26T02:41:29.009Z,1.04
2023-02-26T02:42:29.154Z,1.04
2023-02-26T02:43:29.309Z,1.04
2023-02-26T02:44:29.455Z,1.04
2023-02-26T02:45:29.593Z,1.04
2023-02-26T02:46:30.304Z,1.04
2023-02-26T02:47:29.881Z,1.04
2023-02-26T02:48:30.034Z,1.04
2023-02-26T02:49:30.173Z,1.04
2023-02-26T02:50:30.331Z,1.04
2023-02-26T02:51:30.492Z,1.04
2023-02-26T02:52:30.632Z,1.04
2023-02-26T02:53:30.755Z,1.04
2023-02-26T02:54:30.889Z,1.04
2023-02-26T02:55:31.047Z,1.04
2023-02-26T02:56:31.189Z,1.04
2023-02-26T02:57:31.348Z,1.04
2023-02-26T02:58:31.449Z,1.04
2023-02-26T02:59:31.590Z,1.04
2023-02-26T03:00:31.755Z,1.04
2023-02-26T03:01:31.872Z,1.04
2023-02-26T03:02:31.988Z,1.04
2023-02-26T03:03:32.030Z,1.04
2023-02-26T03:04:32.213Z,1.04
2023-02-26T03:05:32.369Z,1.04
2023-02-26T03:06:32.925Z,1.04
2023-02-26T03:07:32.609Z,1.04
2023-02-26T03:08:32.721Z,1.04
2023-02-26T03:09:32.860Z,1.04
2023-02-26T03:10:32.960Z,1.04
2023-02-26T03:11:33.061Z,1.04
2023-02-26T03:12:33.206Z,1.04
2023-02-26T03:13:33.364Z,1.04
2023-02-26T03:14:33.545Z,1.04
2023-02-26T03:15:33.612Z,1.04
2023-02-26T03:16:33.742Z,1.04
2023-02-26T03:17:33.868Z,1.04
2023-02-26T03:18:33.968Z,1.04
2023-02-26T03:19:34.113Z,1.04
2023-02-26T03:20:34.215Z,1.04
2023-02-26T03:21:34.320Z,1.04
2023-02-26T03:22:34.478Z,1.04
2023-02-26T03:23:34.625Z,1.04
2023-02-26T03:24:34.770Z,1.04
2023-02-26T03:25:34.915Z,1.04
2023-02-26T03:26:35.025Z,1.04
2023-02-26T03:27:35.146Z,1.04
2023-02-26T03:28:35.286Z,1.04
2023-02-26T03:29:35.382Z,1.04
2023-02-26T03:30:35.542Z,1.04
2023-02-26T03:31:35.710Z,1.04
2023-02-26T03:32:35.901Z,1.04
2023-02-26T03:33:35.993Z,1.04
2023-02-26T03:34:36.100Z,1.04
2023-02-26T03:35:36.242Z,1.04
2023-02-26T03:36:36.409Z,1.04
2023-02-26T03:37:36.552Z,1.04
2023-02-26T03:38:36.694Z,1.04
2023-02-26T03:39:36.802Z,1.04
2023-02-26T03:40:36.916Z,1.04
2023-02-26T03:41:37.049Z,1.04
2023-02-26T03:42:37.153Z,1.04
2023-02-26T03:43:37.304Z,1.04
2023-02-26T03:44:37.457Z,1.04
2023-02-26T03:45:37.602Z,1.04
2023-02-26T03:46:37.711Z,1.04
2023-02-26T03:47:37.820Z,1.04
2023-02-26T03:48:38.165Z,1.04
2023-02-26T03:49:38.137Z,1.04
2023-02-26T03:50:38.272Z,1.04
2023-02-26T03:51:38.437Z,1.04
2023-02-26T03:52:38.586Z,1.04
2023-02-26T03:53:38.741Z,1.04
2023-02-26T03:54:38.880Z,1.04
2023-02-26T03:55:39.025Z,1.04
2023-02-26T03:56:39.188Z,1.04
2023-02-26T03:57:39.338Z,1.04
2023-02-26T03:58:39.486Z,1.04
2023-02-26T03:59:39.653Z,1.04
2023-02-26T04:00:42.119Z,1.04
2023-02-26T04:01:39.904Z,1.04
2023-02-26T04:02:40.028Z,1.04
2023-02-26T04:03:40.153Z,1.04
2023-02-26T04:04:40.355Z,1.04
2023-02-26T04:05:40.450Z,1.04
2023-02-26T04:06:40.582Z,1.04
2023-02-26T04:07:40.742Z,1.04
2023-02-26T04:08:40.952Z,1.04
2023-02-26T04:09:41.036Z,1.04
2023-02-26T04:10:41.179Z,1.04
2023-02-26T04:11:41.301Z,1.04
2023-02-26T04:12:41.431Z,1.04
2023-02-26T04:13:41.649Z,1.04
2023-02-26T04:14:41.671Z,1.04
2023-02-26T04:15:41.822Z,1.04
2023-02-26T04:16:41.956Z,1.04
2023-02-26T04:17:42.058Z,1.04
2023-02-26T04:18:42.219Z,1.04
2023-02-26T04:19:42.372Z,1.04
2023-02-26T04:20:42.528Z,1.04
2023-02-26T04:21:42.684Z,1.04
2023-02-26T04:22:42.815Z,1.04
2023-02-26T04:23:42.988Z,1.04
2023-02-26T04:24:43.137Z,1.04
2023-02-26T04:25:43.293Z,1.04
2023-02-26T04:26:43.424Z,1.04
2023-02-26T04:27:43.538Z,1.04
2023-02-26T04:28:43.675Z,1.04
2023-02-26T04:29:43.827Z,1.04
2023-02-26T04:30:44.042Z,1.04
2023-02-26T04:31:44.160Z,1.04
2023-02-26T04:32:44.246Z,1.04
2023-02-26T04:33:44.378Z,1.04
2023-02-26T04:34:44.485Z,1.04
2023-02-26T04:35:44.633Z,1.04
2023-02-26T04:36:44.788Z,1.04
2023-02-26T04:37:44.952Z,1.04
2023-02-26T04:38:45.090Z,1.04
2023-02-26T04:39:45.246Z,1.04
2023-02-26T04:40:45.411Z,1.04
2023-02-26T04:41:45.556Z,1.04
2023-02-26T04:42:47.372Z,1.04
2023-02-26T04:43:45.815Z,1.04
2023-02-26T04:44:45.952Z,1.04
2023-02-26T04:45:46.068Z,1.04
2023-02-26T04:46:46.198Z,1.04
2023-02-26T04:47:46.357Z,1.04
2023-02-26T04:48:46.504Z,1.04
2023-02-26T04:49:46.650Z,1.04
2023-02-26T04:50:46.761Z,1.04
2023-02-26T04:51:46.886Z,1.04
2023-02-26T04:52:46.988Z,1.04
2023-02-26T04:53:47.104Z,1.04
2023-02-26T04:54:47.241Z,1.04
2023-02-26T04:55:47.380Z,1.04
2023-02-26T04:56:47.446Z,1.04
2023-02-26T04:57:47.552Z,1.04
2023-02-26T04:58:47.743Z,1.04
2023-02-26T04:59:47.887Z,1.04
2023-02-26T05:00:48.040Z,1.04
2023-02-26T05:01:48.171Z,1.04
2023-02-26T05:02:48.273Z,1.04
2023-02-26T05:03:48.429Z,1.04
2023-02-26T05:04:48.605Z,1.04
2023-02-26T05:05:48.741Z,1.04
2023-02-26T05:06:48.880Z,1.04
2023-02-26T05:07:49.032Z,1.04
2023-02-26T05:08:49.183Z,1.04
2023-02-26T05:09:49.301Z,1.04
2023-02-26T05:10:49.436Z,1.04
2023-02-26T05:11:49.552Z,1.04
2023-02-26T05:12:49.691Z,1.04
2023-02-26T05:13:49.844Z,1.04
2023-02-26T05:14:50.007Z,1.04
2023-02-26T05:15:50.165Z,1.04
2023-02-26T05:16:50.308Z,1.04
2023-02-26T05:17:50.459Z,1.04
2023-02-26T05:18:50.610Z,1.04
2023-02-26T05:19:50.747Z,1.04
2023-02-26T05:20:50.901Z,1.04
2023-02-26T05:21:51.065Z,1.04
2023-02-26T05:22:51.199Z,1.04
2023-02-26T05:23:51.362Z,2
2023-02-26T05:24:51.503Z,2
2023-02-26T05:25:51.663Z,2
2023-02-26T05:26:51.816Z,2
2023-02-26T05:27:51.973Z,2
2023-02-26T05:28:52.076Z,2
2023-02-26T05:29:52.213Z,3.04
2023-02-26T05:30:52.532Z,3.04
2023-02-26T05:31:52.562Z,4
2023-02-26T05:32:52.593Z,4
2023-02-26T05:33:52.745Z,5.04
2023-02-26T05:34:52.908Z,5.04
2023-02-26T05:35:53.027Z,6
2023-02-26T05:36:53.173Z,7.04
2023-02-26T05:37:53.330Z,9.04
2023-02-26T05:38:53.481Z,10
2023-02-26T05:39:53.642Z,12
2023-02-26T05:40:53.778Z,14
2023-02-26T05:41:53.935Z,16
2023-02-26T05:42:54.088Z,18
2023-02-26T05:43:54.234Z,22
2023-02-26T05:44:54.385Z,25.04
2023-02-26T05:45:54.550Z,29.04
2023-02-26T05:46:54.753Z,34
2023-02-26T05:47:54.801Z,43.04
2023-02-26T05:48:54.877Z,52
2023-02-26T05:49:55.077Z,60
2023-02-26T05:50:55.212Z,66
2023-02-26T05:51:55.360Z,76
2023-02-26T05:52:55.507Z,85.04
2023-02-26T05:53:55.595Z,92
2023-02-26T05:54:55.693Z,98
2023-02-26T05:55:55.856Z,103.04
2023-02-26T05:56:56.004Z,125.04
2023-02-26T05:57:56.140Z,147.04
2023-02-26T05:58:56.298Z,156
2023-02-26T05:59:56.396Z,171.04
2023-02-26T06:00:56.541Z,190.08
2023-02-26T06:01:56.747Z,210.08
2023-02-26T06:02:56.891Z,242.08
2023-02-26T06:03:57.005Z,266.08
2023-02-26T06:04:57.171Z,287.04
2023-02-26T06:05:57.283Z,314.08
2023-02-26T06:06:57.415Z,359.04
2023-02-26T06:07:57.570Z,375.04
2023-02-26T06:08:57.717Z,389.12
2023-02-26T06:09:57.870Z,416
2023-02-26T06:10:58.023Z,446.08
2023-02-26T06:11:58.176Z,464
2023-02-26T06:12:58.322Z,484.16
2023-02-26T06:13:58.469Z,503.04
2023-02-26T06:14:58.624Z,529.28
2023-02-26T06:15:58.871Z,562.24
2023-02-26T06:16:58.891Z,620.16
2023-02-26T06:17:59.035Z,658.56
2023-02-26T06:18:59.131Z,710.4
2023-02-26T06:19:59.276Z,716.16
2023-02-26T06:20:59.393Z,743.04
2023-02-26T06:21:59.494Z,766.08
2023-02-26T06:22:59.641Z,796.16
2023-02-26T06:23:59.804Z,806.4
2023-02-26T06:24:59.944Z,866.56
2023-02-26T06:26:00.124Z,908.16
2023-02-26T06:27:00.237Z,978.56
2023-02-26T06:28:00.393Z,1013.12
2023-02-26T06:29:00.547Z,994.56
2023-02-26T06:30:00.701Z,1007.36
2023-02-26T06:31:00.908Z,991.36
2023-02-26T06:32:01.151Z,1000.32
2023-02-26T06:33:01.114Z,1039.36
2023-02-26T06:34:01.268Z,995.2
2023-02-26T06:35:01.356Z,1010.56
2023-02-26T06:36:01.504Z,1022.08
2023-02-26T06:37:01.659Z,1082.24
2023-02-26T06:38:01.770Z,1069.44
2023-02-26T06:39:01.911Z,1036.16
2023-02-26T06:40:02.027Z,1046.4
2023-02-26T06:41:02.176Z,1089.28
2023-02-26T06:42:02.266Z,1168
2023-02-26T06:43:02.420Z,1178.24
2023-02-26T06:44:02.527Z,1183.36
2023-02-26T06:45:02.683Z,1232
2023-02-26T06:46:02.882Z,1258.24
2023-02-26T06:47:02.974Z,1420.8
2023-02-26T06:48:03.143Z,1552.64
2023-02-26T06:49:03.224Z,1564.16
2023-02-26T06:50:03.378Z,1660.16
2023-02-26T06:51:03.540Z,1847.04
2023-02-26T06:52:03.695Z,1788.16
2023-02-26T06:53:03.808Z,1637.12
2023-02-26T06:54:04.013Z,1692.16
2023-02-26T06:55:04.137Z,1742.08
2023-02-26T06:56:04.380Z,1719.04
2023-02-26T06:57:04.419Z,1721.6
2023-02-26T06:58:04.547Z,1733.12
2023-02-26T06:59:04.652Z,1802.24
2023-02-26T07:00:04.823Z,1845.76
2023-02-26T07:01:04.936Z,2030.08
2023-02-26T07:02:05.057Z,2053.12
2023-02-26T07:03:05.147Z,2004.48
2023-02-26T07:04:05.302Z,2001.92
2023-02-26T07:05:05.401Z,1931.52
2023-02-26T07:06:23.908Z,1977.6
2023-02-26T07:07:05.714Z,1856
2023-02-26T07:08:05.853Z,1756.16
2023-02-26T07:09:06.036Z,1697.28
2023-02-26T07:10:06.123Z,1706.24
2023-02-26T07:11:06.257Z,1738.24
2023-02-26T07:12:06.407Z,1771.52
2023-02-26T07:13:06.573Z,1856
2023-02-26T07:14:06.722Z,1871.36
2023-02-26T07:15:06.882Z,1831.68
2023-02-26T07:16:07.028Z,1838.08
2023-02-26T07:17:07.222Z,1966.08
2023-02-26T07:18:07.338Z,2027.52
2023-02-26T07:19:07.469Z,2040.32
2023-02-26T07:20:07.574Z,2062.08
2023-02-26T07:21:07.718Z,2051.84
2023-02-26T07:22:07.862Z,2123.52
2023-02-26T07:23:08.035Z,2284.8
2023-02-26T07:24:08.172Z,2378.24
2023-02-26T07:25:08.330Z,2387.2
2023-02-26T07:26:08.481Z,2492.16
2023-02-26T07:27:09.140Z,2602.24
2023-02-26T07:28:08.773Z,2636.8
2023-02-26T07:29:09.338Z,2483.2
2023-02-26T07:30:09.115Z,2382.08
2023-02-26T07:31:09.725Z,2359.04
2023-02-26T07:32:09.336Z,2478.08
2023-02-26T07:33:09.435Z,2534.4
2023-02-26T07:34:09.588Z,2438.4
2023-02-26T07:35:09.730Z,2336
2023-02-26T07:36:09.904Z,2324.48
2023-02-26T07:37:10.040Z,2366.72
2023-02-26T07:38:10.201Z,2570.24
2023-02-26T07:39:10.349Z,2654.72
2023-02-26T07:40:10.502Z,2813.44
2023-02-26T07:41:10.653Z,2856.96
2023-02-26T07:42:10.790Z,3038.72
2023-02-26T07:43:10.964Z,3320.32
2023-02-26T07:44:11.115Z,3525.12
2023-02-26T07:45:11.269Z,3540.48
2023-02-26T07:46:11.487Z,3924.48
2023-02-26T07:47:11.562Z,4131.84
2023-02-26T07:48:11.723Z,3875.84
2023-02-26T07:49:11.912Z,3709.44
2023-02-26T07:50:12.030Z,3642.88
2023-02-26T07:51:12.165Z,3893.76
2023-02-26T07:52:12.316Z,3978.24
2023-02-26T07:53:12.413Z,3814.4
2023-02-26T07:54:12.572Z,3740.16
2023-02-26T07:55:12.715Z,3829.76
2023-02-26T07:56:12.867Z,3950.08
2023-02-26T07:57:13.017Z,4047.36
2023-02-26T07:58:13.213Z,4372.48
2023-02-26T07:59:13.327Z,4480
2023-02-26T08:00:13.466Z,4536.32
2023-02-26T08:01:13.647Z,4648.96
2023-02-26T08:02:13.771Z,4561.92
2023-02-26T08:03:13.944Z,4436.48
2023-02-26T08:04:14.105Z,4439.04
2023-02-26T08:05:14.177Z,4625.92
2023-02-26T08:06:14.337Z,4961.28
2023-02-26T08:07:14.447Z,5099.52
2023-02-26T08:08:14.581Z,5130.24
2023-02-26T08:09:14.734Z,5038.08
2023-02-26T08:10:14.897Z,4940.8
2023-02-26T08:11:15.051Z,5094.4
2023-02-26T08:12:15.184Z,5442.56
2023-02-26T08:13:15.349Z,5708.8
2023-02-26T08:14:15.484Z,5713.92
2023-02-26T08:15:15.653Z,5831.68
2023-02-26T08:16:15.889Z,5662.72
2023-02-26T08:17:15.963Z,5427.2
2023-02-26T08:18:16.129Z,5345.28
2023-02-26T08:19:16.286Z,5688.32
2023-02-26T08:20:16.481Z,6323.2
2023-02-26T08:21:16.567Z,6743.04
2023-02-26T08:22:16.704Z,6717.44
2023-02-26T08:23:16.811Z,6394.88
2023-02-26T08:24:16.959Z,6056.96
2023-02-26T08:25:17.114Z,5857.28
2023-02-26T08:26:17.275Z,5580.8
2023-02-26T08:27:17.430Z,5350.4
2023-02-26T08:28:17.582Z,5821.44
2023-02-26T08:29:17.706Z,6082.56
2023-02-26T08:30:17.881Z,6323.2
2023-02-26T08:31:18.165Z,6517.76
2023-02-26T08:32:18.240Z,6835.2
2023-02-26T08:33:18.265Z,7173.12
2023-02-26T08:34:18.429Z,7393.28
2023-02-26T08:35:18.581Z,7705.6
2023-02-26T08:36:18.720Z,7546.88
2023-02-26T08:37:18.877Z,7424
2023-02-26T08:38:18.973Z,7336.96
2023-02-26T08:39:19.122Z,7316.48
2023-02-26T08:40:19.274Z,7756.8
2023-02-26T08:41:19.431Z,7971.84
2023-02-26T08:42:19.589Z,8099.84
2023-02-26T08:43:19.724Z,8140.8
2023-02-26T08:44:19.881Z,8279.04
2023-02-26T08:45:20.058Z,8483.84
2023-02-26T08:46:20.242Z,8893.439
2023-02-26T08:47:28.352Z,9262.08
2023-02-26T08:48:20.509Z,9369.6
2023-02-26T08:49:20.636Z,9487.359
2023-02-26T08:50:20.746Z,9768.96
2023-02-26T08:51:20.903Z,10065.92
2023-02-26T08:52:21.051Z,10296.319
2023-02-26T08:53:21.212Z,10690.56
2023-02-26T08:54:21.383Z,11069.439
2023-02-26T08:55:21.506Z,11591.68
2023-02-26T08:56:21.679Z,11939.84
2023-02-26T08:57:21.823Z,12390.399
2023-02-26T08:58:21.965Z,12646.399
2023-02-26T08:59:22.108Z,12922.88
2023-02-26T09:00:22.217Z,14284.8
2023-02-26T09:01:22.342Z,14520.319
2023-02-26T09:02:22.471Z,14807.04
2023-02-26T09:03:22.563Z,14592
2023-02-26T09:04:22.711Z,14735.359
2023-02-26T09:05:22.813Z,14643.199
2023-02-26T09:06:23.003Z,15073.279
2023-02-26T09:07:23.112Z,15237.12
2023-02-26T09:08:23.268Z,14796.8
2023-02-26T09:09:23.420Z,14182.399
2023-02-26T09:10:23.638Z,14981.12
2023-02-26T09:11:24.153Z,14899.199
2023-02-26T09:12:23.896Z,14827.52
2023-02-26T09:13:24.022Z,15462.399
2023-02-26T09:14:24.124Z,15708.159
2023-02-26T09:15:24.281Z,15544.319
2023-02-26T09:16:24.713Z,15339.52
2023-02-26T09:17:24.588Z,14960.64
2023-02-26T09:18:24.712Z,14929.92
2023-02-26T09:19:24.848Z,14950.399
2023-02-26T09:20:24.980Z,15042.56
2023-02-26T09:21:25.153Z,15032.319
2023-02-26T09:22:25.298Z,14909.439
2023-02-26T09:23:25.477Z,14848
2023-02-26T09:24:25.689Z,15093.76
2023-02-26T09:25:25.742Z,15339.52
2023-02-26T09:26:26.167Z,15575.04
2023-02-26T09:27:26.075Z,15329.279
2023-02-26T09:28:26.329Z,14981.12
2023-02-26T09:29:26.348Z,15421.439
2023-02-26T09:30:26.512Z,15503.359
2023-02-26T09:31:26.673Z,15278.08
2023-02-26T09:32:26.852Z,14489.6
2023-02-26T09:33:26.909Z,13987.84
2023-02-26T09:34:27.070Z,13783.04
2023-02-26T09:35:27.217Z,14059.52
2023-02-26T09:36:27.680Z,14141.439
2023-02-26T09:37:27.524Z,13916.16
2023-02-26T09:38:27.681Z,14192.64
2023-02-26T09:39:27.785Z,14295.04
2023-02-26T09:40:27.907Z,14008.319
2023-02-26T09:41:28.068Z,14151.68
2023-02-26T09:42:28.166Z,13977.6
2023-02-26T09:43:28.325Z,13936.64
2023-02-26T09:44:28.421Z,13393.92
2023-02-26T09:45:28.608Z,13660.16
2023-02-26T09:46:28.626Z,13926.399
2023-02-26T09:47:28.806Z,14161.92
2023-02-26T09:48:28.904Z,14039.04
2023-02-26T09:49:29.029Z,13496.319
2023-02-26T09:50:29.174Z,13578.239
2023-02-26T09:51:29.308Z,13568
2023-02-26T09:52:29.463Z,13588.479
2023-02-26T09:53:29.575Z,13864.96
2023-02-26T09:54:29.742Z,14387.199
2023-02-26T09:55:29.887Z,13496.319
2023-02-26T09:56:29.994Z,13434.88
2023-02-26T09:57:30.149Z,13578.239
2023-02-26T09:58:30.287Z,14356.479
2023-02-26T09:59:30.443Z,14807.04
2023-02-26T10:00:30.601Z,14254.08
2023-02-26T10:01:30.802Z,13711.359
2023-02-26T10:02:30.917Z,13731.84
2023-02-26T10:03:31.053Z,13486.08
2023-02-26T10:04:31.268Z,14817.279
2023-02-26T10:05:31.306Z,15820.8
2023-02-26T10:06:31.463Z,14940.159
2023-02-26T10:07:31.607Z,13701.12
2023-02-26T10:08:31.756Z,12595.2
2023-02-26T10:09:31.920Z,11438.08
2023-02-26T10:10:33.395Z,11489.279
2023-02-26T10:11:32.275Z,11304.96
2023-02-26T10:12:32.308Z,11939.84
2023-02-26T10:13:32.827Z,11960.319
2023-02-26T10:14:32.574Z,12728.319
2023-02-26T10:15:32.734Z,13434.88
2023-02-26T10:16:32.932Z,10030.08
2023-02-26T10:17:33.025Z,8903.68
2023-02-26T10:18:33.178Z,9431.04
2023-02-26T10:19:33.305Z,9272.319
2023-02-26T10:20:33.477Z,8739.84
2023-02-26T10:21:33.588Z,8437.76
2023-02-26T10:22:33.729Z,9154.56
2023-02-26T10:23:33.884Z,8693.76
2023-02-26T10:24:34.002Z,9328.64
2023-02-26T10:25:34.087Z,9978.88
2023-02-26T10:26:34.234Z,10752
2023-02-26T10:27:34.333Z,10383.359
2023-02-26T10:28:34.486Z,10639.359
2023-02-26T10:29:34.653Z,11264
2023-02-26T10:30:34.825Z,10915.84
2023-02-26T10:31:34.931Z,11776
2023-02-26T10:32:35.124Z,12830.72
2023-02-26T10:33:35.206Z,14080
2023-02-26T10:34:35.339Z,15278.08
2023-02-26T10:35:35.500Z,16005.12
2023-02-26T10:36:35.596Z,16691.2
2023-02-26T10:37:35.754Z,16711.68
2023-02-26T10:38:35.871Z,17018.88
2023-02-26T10:39:35.998Z,16824.32
2023-02-26T10:40:36.138Z,17459.2
2023-02-26T10:41:36.246Z,18135.04
2023-02-26T10:42:36.399Z,18104.32
2023-02-26T10:43:36.564Z,18841.6
2023-02-26T10:44:36.697Z,18862.08
2023-02-26T10:45:36.875Z,19496.96
2023-02-26T10:46:36.954Z,18350.08
2023-02-26T10:47:37.105Z,20039.68
2023-02-26T10:48:37.253Z,20305.92
2023-02-26T10:49:37.402Z,19159.04
2023-02-26T10:50:37.561Z,18810.88
2023-02-26T10:51:37.757Z,18001.92
2023-02-26T10:52:37.826Z,17244.16
2023-02-26T10:53:40.427Z,17745.92
2023-02-26T10:54:38.129Z,18616.32
2023-02-26T10:55:38.280Z,17981.44
2023-02-26T10:56:38.416Z,17991.68
2023-02-26T10:57:38.523Z,19333.12
2023-02-26T10:58:38.675Z,20889.6
2023-02-26T10:59:38.814Z,18944
2023-02-26T11:00:38.973Z,17100.8
2023-02-26T11:01:39.137Z,16537.6
2023-02-26T11:02:39.262Z,16424.96
2023-02-26T11:03:39.356Z,16312.319
2023-02-26T11:04:39.482Z,15728.64
2023-02-26T11:05:39.652Z,15411.199
2023-02-26T11:06:39.777Z,14817.279
2023-02-26T11:07:39.959Z,13834.239
2023-02-26T11:08:40.099Z,14151.68
2023-02-26T11:09:40.247Z,14807.04
2023-02-26T11:10:40.399Z,13680.64
2023-02-26T11:11:40.548Z,13404.16
2023-02-26T11:12:40.704Z,13291.52
2023-02-26T11:13:40.805Z,13895.68
2023-02-26T11:14:40.962Z,14325.76
2023-02-26T11:15:41.129Z,13977.6
2023-02-26T11:16:41.208Z,13711.359
2023-02-26T11:17:41.355Z,13271.04
2023-02-26T11:18:41.501Z,12523.52
2023-02-26T11:19:41.683Z,12124.16
2023-02-26T11:20:41.804Z,12595.2
2023-02-26T11:21:41.977Z,13137.92
2023-02-26T11:22:42.116Z,13199.359
2023-02-26T11:23:42.259Z,12697.6
2023-02-26T11:24:42.370Z,12523.52
2023-02-26T11:25:42.519Z,11868.16
2023-02-26T11:26:42.627Z,11130.88
2023-02-26T11:27:42.776Z,10762.24
2023-02-26T11:28:42.882Z,10618.88
2023-02-26T11:29:43.051Z,10700.8
2023-02-26T11:30:43.263Z,11233.279
2023-02-26T11:31:43.441Z,12124.16
2023-02-26T11:32:43.459Z,12666.88
2023-02-26T11:33:43.509Z,12656.64
2023-02-26T11:34:43.609Z,11755.52
2023-02-26T11:35:43.797Z,11038.72
2023-02-26T11:36:43.912Z,11192.319
2023-02-26T11:37:44.067Z,11479.04
2023-02-26T11:38:44.247Z,11479.04
2023-02-26T11:39:44.389Z,11540.479
2023-02-26T11:40:44.535Z,11857.92
2023-02-26T11:41:44.644Z,11694.08
2023-02-26T11:42:44.801Z,11243.52
2023-02-26T11:43:45.289Z,10598.399
2023-02-26T11:44:45.087Z,10844.16
2023-02-26T11:45:45.251Z,11714.56
2023-02-26T11:46:45.414Z,12779.52
2023-02-26T11:47:45.554Z,13926.399
2023-02-26T11:48:45.654Z,12625.92
2023-02-26T11:49:45.802Z,11202.56
2023-02-26T11:50:45.948Z,10803.2
2023-02-26T11:51:46.128Z,11294.72
2023-02-26T11:52:46.253Z,12380.16
2023-02-26T11:53:46.407Z,16158.72
2023-02-26T11:54:46.572Z,19507.2
2023-02-26T11:55:46.665Z,22896.64
2023-02-26T11:56:46.817Z,24903.68
2023-02-26T11:57:46.984Z,23244.8
2023-02-26T11:58:47.151Z,22384.64
2023-02-26T11:59:47.260Z,22650.88
2023-02-26T12:00:47.441Z,28938.24
2023-02-26T12:01:47.569Z,38502.4
2023-02-26T12:02:47.763Z,33976.32
2023-02-26T12:03:47.999Z,29491.2
2023-02-26T12:04:48.023Z,30392.32
2023-02-26T12:05:48.122Z,35123.2
2023-02-26T12:06:48.265Z,38359.04
2023-02-26T12:07:48.435Z,37703.68
2023-02-26T12:08:48.592Z,35655.68
2023-02-26T12:09:48.769Z,29122.56
2023-02-26T12:10:48.870Z,22425.6
2023-02-26T12:11:49.040Z,18442.24
2023-02-26T12:12:49.120Z,15042.56
2023-02-26T12:13:49.277Z,11786.239
2023-02-26T12:14:49.436Z,9605.12
2023-02-26T12:15:49.614Z,8289.28
2023-02-26T12:16:49.699Z,7080.96
2023-02-26T12:17:49.854Z,6328.32
2023-02-26T12:18:50.001Z,6128.64
2023-02-26T12:19:50.161Z,6343.68
2023-02-26T12:20:50.246Z,6251.52
2023-02-26T12:21:50.424Z,6062.08
2023-02-26T12:22:50.496Z,6497.28
2023-02-26T12:23:50.649Z,6988.8
2023-02-26T12:24:50.786Z,7976.96
2023-02-26T12:25:50.913Z,9036.8
2023-02-26T12:26:51.058Z,9041.92
2023-02-26T12:27:51.153Z,9185.28
2023-02-26T12:28:51.326Z,9835.52
2023-02-26T12:29:51.450Z,10946.56
2023-02-26T12:30:51.609Z,12052.479
2023-02-26T12:31:51.881Z,14274.56
2023-02-26T12:32:51.861Z,15503.359
2023-02-26T12:33:52.006Z,15892.479
2023-02-26T12:34:52.113Z,16128
2023-02-26T12:35:52.265Z,16732.16
2023-02-26T12:36:52.373Z,17612.8
2023-02-26T12:37:52.525Z,18964.48